Flight Track Log - Related Links

Times and Time Zones

All times are in EDT time to prevent confusion due to time zone crossing. See the AAL2345 flight status page for this flight to view local times or setup timezone preferences in your user account.

Time Position Orientation Groundspeed Altitude Reporting Facility
EDT Latitude Longitude Course Direction KTS MPH feet Rate Location/Type
Sat 06:57:15 PM 42.0069 -87.8822 194° South 162 186 34,000  Level Chicago Center
Sat 06:58:17 PM 41.9842 -87.8461 130° Southeast 218 251 4,200 -14,098 Descending Chicago Center
Sat 06:59:00 PM 41.7658 -88.1621 201° Southwest  Level Estimated
Sat 06:59:18 PM 41.9031 -87.8428 178° South 240 276 5,100  Level Chicago Center
Sat 07:00:00 PM 41.6754 -88.1191 160° South  Level FlightAware Approximate
Sat 07:00:19 PM 41.8419 -87.8969 213° Southwest 259 298 7,300  Level Chicago Center
Sat 07:01:00 PM 41.6038 -88.2045 197° South  Level Estimated
Sat 07:01:21 PM 41.7756 -87.9425 207° Southwest 269 310 10,800  Level Chicago Center
Sat 07:02:00 PM 41.5321 -88.2897 194° South  Level Estimated
Sat 07:02:22 PM 41.7017 -87.9922 207° Southwest 296 341 13,200  Level Chicago Center
Sat 07:03:24 PM 41.6125 -88.0481 205° Southwest 352 405 15,300 2,244 Climbing Chicago Center
Sat 07:04:25 PM 41.5211 -88.1050 205° Southwest 366 421 17,800 2,607 Climbing Chicago Center
Sat 07:05:26 PM 41.4131 -88.1733 205° Southwest 373 429 20,600 2,439 Climbing Chicago Center
Sat 07:06:28 PM 41.3108 -88.2225 200° South 400 460 22,800 2,049 Climbing Chicago Center
Sat 07:07:29 PM 41.2067 -88.2694 199° South 400 460 24,800 1,902 Climbing Chicago Center
Sat 07:08:31 PM 41.1000 -88.3186 199° South 406 467 26,700 1,610 Climbing Chicago Center
Sat 07:09:32 PM 40.9914 -88.3683 199° South 414 476 28,100 1,525 Climbing Chicago Center
Sat 07:10:33 PM 40.8572 -88.4275 198° South 425 489 29,800 1,610 Climbing Chicago Center
Sat 07:11:35 PM 40.7461 -88.4775 199° South 425 489 31,400 1,073 Climbing Chicago Center
Sat 07:12:36 PM 40.6367 -88.5244 198° South 417 480 32,000 634 Climbing Chicago Center
Sat 07:13:38 PM 40.5289 -88.5714 198° South 410 472 32,700 732 Climbing Chicago Center
Sat 07:14:39 PM 40.4275 -88.6183 199° South 409 471 33,500 639 Climbing Chicago Center
Sat 07:15:40 PM 40.3192 -88.6689 200° South 414 476 34,000 244 Climbing Chicago Center
Sat 07:16:42 PM 40.2317 -88.7558 217° Southwest 397 457 34,000  Level Chicago Center
Sat 07:17:43 PM 40.1447 -88.8447 218° Southwest 395 455 34,000  Level Chicago Center
Sat 07:18:44 PM 40.0400 -88.9517 218° Southwest 396 456 34,000  Level Chicago Center
Sat 07:19:46 PM 39.9519 -89.0417 218° Southwest 401 461 34,000  Level Chicago Center
Sat 07:20:47 PM 39.8661 -89.1308 219° Southwest 395 455 34,000  Level Chicago Center
Sat 07:21:49 PM 39.7800 -89.2175 218° Southwest 393 452 34,000  Level Chicago Center
Sat 07:22:56 PM 39.6950 -89.3022 217° Southwest 389 448 34,000  Level Kansas City Center
Sat 07:23:57 PM 39.5944 -89.4056 218° Southwest 390 449 34,000  Level Kansas City Center
Sat 07:25:01 PM 39.5081 -89.4914 217° Southwest 391 450 34,000  Level Kansas City Center
Sat 07:26:01 PM 39.4228 -89.5783 218° Southwest 391 450 34,000  Level Kansas City Center
Sat 07:27:01 PM 39.3369 -89.6642 218° Southwest 390 449 34,000  Level Kansas City Center
Sat 07:28:05 PM 39.2508 -89.7503 218° Southwest 391 450 34,000  Level Kansas City Center
Sat 07:29:06 PM 39.1564 -89.8447 218° Southwest 394 453 34,000  Level Kansas City Center
Sat 07:30:07 PM 39.0619 -89.9375 217° Southwest 397 457 34,000  Level Kansas City Center
Sat 07:31:07 PM 38.9922 -90.0097 219° Southwest 392 451 34,000  Level Kansas City Center
Sat 07:32:09 PM 38.9164 -90.1164 228° Southwest 382 440 34,000  Level Kansas City Center
Sat 07:33:12 PM 38.8425 -90.2172 227° Southwest 385 443 34,000  Level Kansas City Center
Sat 07:34:14 PM 38.7536 -90.3386 227° Southwest 387 445 34,000  Level Kansas City Center
Sat 07:35:15 PM 38.6792 -90.4378 226° Southwest 386 444 34,000  Level Kansas City Center
Sat 07:36:16 PM 38.6050 -90.5375 226° Southwest 385 443 34,000  Level Kansas City Center
Sat 07:37:17 PM 38.5308 -90.6375 227° Southwest 384 442 34,000  Level Kansas City Center
Sat 07:38:20 PM 38.4556 -90.7386 226° Southwest 385 443 34,000  Level Kansas City Center
Sat 07:39:21 PM 38.3808 -90.8394 227° Southwest 391 450 34,000  Level Kansas City Center
Sat 07:40:22 PM 38.3069 -90.9383 226° Southwest 387 445 34,000  Level Kansas City Center
Sat 07:41:22 PM 38.2328 -91.0369 226° Southwest 386 444 34,000  Level Kansas City Center
Sat 07:42:25 PM 38.1564 -91.1367 226° Southwest 388 447 34,000  Level Kansas City Center
Sat 07:43:27 PM 38.0847 -91.2356 227° Southwest 384 442 34,000  Level Kansas City Center
Sat 07:44:26 PM 38.0067 -91.3350 225° Southwest 390 449 34,000  Level Kansas City Center
Sat 07:45:29 PM 37.9150 -91.4556 226° Southwest 393 452 34,000  Level Kansas City Center
Sat 07:46:31 PM 37.8392 -91.5550 226° Southwest 392 451 34,000  Level Kansas City Center
Sat 07:47:32 PM 37.7633 -91.6561 227° Southwest 392 451 34,000  Level Kansas City Center
Sat 07:48:33 PM 37.6869 -91.7547 226° Southwest 391 450 34,000  Level Kansas City Center
Sat 07:49:33 PM 37.6117 -91.8533 226° Southwest 388 447 34,000  Level Kansas City Center
Sat 07:50:37 PM 37.5361 -91.9531 226° Southwest 388 447 34,000  Level Kansas City Center
Sat 07:51:38 PM 37.4586 -92.0483 224° Southwest 387 445 34,000  Level Kansas City Center
Sat 07:52:39 PM 37.3767 -92.1381 221° Southwest 387 445 34,000  Level Kansas City Center
Sat 07:53:40 PM 37.2942 -92.2300 222° Southwest 391 450 34,000  Level Kansas City Center
Sat 07:54:42 PM 37.2131 -92.3208 222° Southwest 390 449 34,000  Level Kansas City Center
Sat 07:55:41 PM 37.1322 -92.4108 222° Southwest 388 447 34,000  Level Kansas City Center
Sat 07:56:45 PM 37.0503 -92.5003 221° Southwest 388 447 34,000  Level Kansas City Center
Sat 07:57:46 PM 36.9681 -92.5906 221° Southwest 390 449 34,000  Level Kansas City Center
Sat 07:58:47 PM 36.8861 -92.6789 221° Southwest 389 448 34,000  Level Kansas City Center
Sat 07:59:54 PM 36.7897 -92.7844 221° Southwest 395 455 34,000  Level Memphis Center
Sat 08:00:54 PM 36.7064 -92.8750 221° Southwest 395 455 34,000  Level Memphis Center
Sat 08:01:54 PM 36.6275 -92.9631 222° Southwest 395 455 34,000  Level Memphis Center
Sat 08:02:54 PM 36.5467 -93.0483 220° Southwest 395 455 34,000  Level Memphis Center
Sat 08:03:54 PM 36.4656 -93.1361 221° Southwest 395 455 34,000  Level Memphis Center
Sat 08:04:54 PM 36.3778 -93.2283 220° Southwest 395 455 34,000  Level Memphis Center
Sat 08:05:54 PM 36.2967 -93.3131 220° Southwest 389 448 34,000  Level Memphis Center
Sat 08:06:54 PM 36.2175 -93.3978 221° Southwest 389 448 34,000  Level Memphis Center
Sat 08:07:54 PM 36.1403 -93.4822 221° Southwest 382 440 34,000  Level Memphis Center
Sat 08:08:54 PM 36.0611 -93.5639 220° Southwest 376 433 34,000  Level Memphis Center
Sat 08:09:54 PM 35.9839 -93.6481 221° Southwest 376 433 34,000  Level Memphis Center
Sat 08:10:54 PM 35.9044 -93.7294 220° Southwest 376 433 34,000  Level Memphis Center
Sat 08:11:54 PM 35.8250 -93.8133 221° Southwest 376 433 34,000  Level Memphis Center
Sat 08:12:54 PM 35.7456 -93.8994 221° Southwest 376 433 34,000  Level Memphis Center
Sat 08:13:54 PM 35.6617 -93.9853 220° Southwest 376 433 34,000  Level Memphis Center
Sat 08:14:54 PM 35.5822 -94.0686 220° Southwest 376 433 34,000  Level Memphis Center
Sat 08:15:54 PM 35.5025 -94.1519 220° Southwest 376 433 34,000  Level Memphis Center
Sat 08:16:54 PM 35.4206 -94.2372 220° Southwest 381 438 34,000  Level Memphis Center
Sat 08:17:54 PM 35.3408 -94.3200 220° Southwest 381 438 34,000  Level Memphis Center
Sat 08:18:54 PM 35.2608 -94.4078 222° Southwest 381 438 34,000  Level Memphis Center
Sat 08:20:51 PM 35.1094 -94.5761 222° Southwest 363 418 34,000  Level Fort Worth Center
Sat 08:21:51 PM 35.0278 -94.6650 222° Southwest 374 430 34,000  Level Fort Worth Center
Sat 08:22:51 PM 34.9586 -94.7383 221° Southwest 379 436 34,000  Level Fort Worth Center
Sat 08:23:51 PM 34.8689 -94.8347 221° Southwest 388 447 34,000  Level Fort Worth Center
Sat 08:24:51 PM 34.7914 -94.9231 223° Southwest 391 450 34,000  Level Fort Worth Center
Sat 08:25:51 PM 34.7136 -95.0011 220° Southwest 381 438 34,000  Level Fort Worth Center
Sat 08:26:51 PM 34.6358 -95.0867 222° Southwest 381 438 34,000  Level Fort Worth Center
Sat 08:27:51 PM 34.5600 -95.1642 220° Southwest 376 433 34,000  Level Fort Worth Center
Sat 08:28:51 PM 34.4803 -95.2544 223° Southwest 376 433 34,000 -500 Level Fort Worth Center
Sat 08:29:51 PM 34.4022 -95.3319 219° Southwest 376 433 33,000 -1,550 Descending Fort Worth Center
Sat 08:30:51 PM 34.3203 -95.4194 221° Southwest 381 438 30,900 -2,250 Descending Fort Worth Center
Sat 08:31:51 PM 34.2422 -95.5042 222° Southwest 381 438 28,500 -2,350 Descending Fort Worth Center
Sat 08:32:51 PM 34.1581 -95.5889 220° Southwest 391 450 26,200 -2,450 Descending Fort Worth Center
Sat 08:33:51 PM 34.0819 -95.6706 222° Southwest 386 444 23,600 -2,500 Descending Fort Worth Center
Sat 08:34:51 PM 34.0039 -95.7525 221° Southwest 375 432 21,200 -2,400 Descending Fort Worth Center
Sat 08:35:51 PM 33.9256 -95.8339 221° Southwest 382 440 18,800 -2,100 Descending Fort Worth Center
Sat 08:36:51 PM 33.8492 -95.9103 220° Southwest 371 427 17,000 -1,600 Descending Fort Worth Center
Sat 08:37:51 PM 33.7792 -95.9892 223° Southwest 357 411 15,600 -1,350 Descending Fort Worth Center
Sat 08:38:51 PM 33.7069 -96.0603 219° Southwest 352 405 14,300 -1,250 Descending Fort Worth Center
Sat 08:39:51 PM 33.6367 -96.1311 220° Southwest 346 398 13,100 -1,250 Descending Fort Worth Center
Sat 08:40:51 PM 33.5686 -96.2044 222° Southwest 340 391 11,800 -1,050 Descending Fort Worth Center
Sat 08:41:51 PM 33.5003 -96.2775 222° Southwest 334 384 11,000 -400 Descending Fort Worth Center
Sat 08:42:51 PM 33.4425 -96.3481 226° Southwest 306 352 11,000  Level Fort Worth Center
Sat 08:43:51 PM 33.3889 -96.4133 225° Southwest 288 331 11,000 -700 Level Fort Worth Center
Sat 08:44:51 PM 33.3372 -96.4761 225° Southwest 272 313 9,600 -1,400 Descending Fort Worth Center
Sat 08:45:51 PM 33.2958 -96.5511 237° Southwest 272 313 8,200 -1,600 Descending Fort Worth Center
Sat 08:46:51 PM 33.2567 -96.6233 237° Southwest 267 307 6,400 -1,600 Descending Fort Worth Center
Sat 08:47:51 PM 33.2156 -96.6983 237° Southwest 267 307 5,000 -700 Descending Fort Worth Center
Sat 08:48:51 PM 33.1761 -96.7731 238° Southwest 267 307 5,000 -400 Level Fort Worth Center
Sat 08:49:51 PM 33.1369 -96.8478 238° Southwest 267 307 4,200 -1,000 Descending Fort Worth Center
Sat 08:50:51 PM 33.1017 -96.9125 237° Southwest 272 313 3,000 -679 Descending Fort Worth Center
Sat 08:51:37 PM 33.0667 -96.9667 232° Southwest 217 250 3,000  Level Dallas / Fort Worth TRACON

Login

Don't have an account? Register now (free) for customized features, flight alerts, and more!